createdAt,value
2016-05-07T08:06:48.396Z,42.28
2016-05-07T08:07:47.758Z,42.67
2016-05-07T08:08:47.714Z,42.76
2016-05-07T08:09:47.685Z,43.07
2016-05-07T08:10:47.641Z,43.46
2016-05-07T08:11:47.628Z,43.65
2016-05-07T08:12:47.475Z,44.04
2016-05-07T08:13:47.603Z,44.62
2016-05-07T08:14:47.558Z,44.42
2016-05-07T08:15:47.374Z,45.29
2016-05-07T08:16:47.532Z,45.39
2016-05-07T08:17:47.550Z,45.2
2016-05-07T08:18:47.491Z,45.7
2016-05-07T08:19:47.681Z,45.41
2016-05-07T08:20:47.450Z,45.6
2016-05-07T08:21:47.296Z,45.99
2016-05-07T08:22:47.517Z,45.79
2016-05-07T08:23:47.410Z,45.99
2016-05-07T08:24:47.397Z,46.01
2016-05-07T08:25:47.370Z,46.2
2016-05-07T08:26:47.341Z,45.92
2016-05-07T08:27:47.155Z,46.11
2016-05-07T08:28:47.319Z,46.2
2016-05-07T08:29:47.396Z,46.2
2016-05-07T08:30:47.349Z,46.51
2016-05-07T08:31:47.363Z,46.33
2016-05-07T08:32:47.409Z,46.51
2016-05-07T08:33:47.404Z,46.51
2016-05-07T08:34:47.516Z,46.61
2016-05-07T08:35:47.441Z,46.51
2016-05-07T08:36:48.396Z,46.51
2016-05-07T08:37:48.491Z,46.51
2016-05-07T08:38:47.977Z,46.61
2016-05-07T08:39:48.502Z,46.54
2016-05-07T08:40:47.369Z,46.54
2016-05-07T08:41:47.394Z,46.54
2016-05-07T08:42:47.761Z,46.44
2016-05-07T08:43:48.816Z,46.44
2016-05-07T08:44:47.743Z,46.64
2016-05-07T08:45:47.560Z,46.54
2016-05-07T08:46:47.455Z,46.56
2016-05-07T08:47:47.412Z,46.37
2016-05-07T08:48:47.309Z,46.27
2016-05-07T08:49:47.484Z,46.27
2016-05-07T08:50:47.205Z,46.27
2016-05-07T08:51:47.381Z,46.08
2016-05-07T08:52:47.572Z,46.08
2016-05-07T08:53:47.184Z,45.98
2016-05-07T08:54:47.703Z,45.98
2016-05-07T08:55:47.207Z,45.89
2016-05-07T08:56:47.647Z,46
2016-05-07T08:57:47.510Z,45.91
2016-05-07T08:58:47.088Z,45.72
2016-05-07T08:59:47.155Z,45.62
2016-05-07T09:00:47.093Z,45.62
2016-05-07T09:01:46.877Z,45.91
2016-05-07T09:02:47.052Z,45.81
2016-05-07T09:03:47.007Z,45.72
2016-05-07T09:04:46.980Z,45.64
2016-05-07T09:05:46.982Z,45.52
2016-05-07T09:06:47.032Z,45.35
2016-05-07T09:07:46.924Z,45.45
2016-05-07T09:08:46.990Z,45.45
2016-05-07T09:09:46.915Z,45.45
2016-05-07T09:10:46.886Z,45.35
2016-05-07T09:11:46.857Z,44.67
2016-05-07T09:12:46.688Z,44.87
2016-05-07T09:13:46.643Z,44.96
2016-05-07T09:14:46.835Z,45.06
2016-05-07T09:15:46.806Z,44.48
2016-05-07T09:16:46.590Z,44.96
2016-05-07T09:17:46.779Z,45.16
2016-05-07T09:18:46.579Z,44.96
2016-05-07T09:19:46.785Z,44.87
2016-05-07T09:20:46.851Z,44.57
2016-05-07T09:21:46.775Z,44.67
2016-05-07T09:22:46.667Z,44.38
2016-05-07T09:23:46.796Z,44.4
2016-05-07T09:24:46.658Z,43.9
2016-05-07T09:25:46.505Z,44.38
2016-05-07T09:26:46.586Z,44.09
2016-05-07T09:27:46.760Z,44.12
2016-05-07T09:28:46.825Z,44.12
2016-05-07T09:29:46.500Z,43.92
2016-05-07T09:30:46.518Z,43.63
2016-05-07T09:31:46.833Z,43.73
2016-05-07T09:32:46.538Z,43.34
2016-05-07T09:33:46.510Z,43.44
2016-05-07T09:34:46.482Z,43.15
2016-05-07T09:35:46.453Z,42.96
2016-05-07T09:36:46.519Z,42.86
2016-05-07T09:37:46.240Z,42.78
2016-05-07T09:38:46.415Z,42.88
2016-05-07T09:39:46.385Z,42.88
2016-05-07T09:40:46.373Z,42.68
2016-05-07T09:41:46.360Z,42.68
2016-05-07T09:42:50.490Z,42.68
2016-05-07T09:43:46.506Z,42.4
2016-05-07T09:44:46.696Z,42.49
2016-05-07T09:45:46.309Z,42.68
2016-05-07T09:46:46.265Z,42.68
2016-05-07T09:47:46.751Z,42.49
2016-05-07T09:48:46.551Z,42.49
2016-05-07T09:49:46.569Z,42.4
2016-05-07T09:50:46.197Z,42.49
2016-05-07T09:51:46.231Z,42.2
2016-05-07T09:52:49.578Z,42.41
2016-05-07T09:53:46.173Z,42.41
2016-05-07T09:54:48.239Z,42.41
2016-05-07T09:55:46.506Z,42.32
2016-05-07T09:56:46.151Z,42.32
2016-05-07T09:57:46.762Z,42.03
2016-05-07T09:58:46.219Z,42.03
2016-05-07T09:59:46.049Z,42.22
2016-05-07T10:00:46.083Z,41.93
2016-05-07T10:01:46.023Z,42.22
2016-05-07T10:02:46.058Z,41.83
2016-05-07T10:03:46.091Z,42.03
2016-05-07T10:04:46.000Z,41.93
2016-05-07T10:05:45.972Z,42.03
2016-05-07T10:06:46.021Z,41.93
2016-05-07T10:07:45.946Z,41.74
2016-05-07T10:08:45.808Z,41.64
2016-05-07T10:09:45.919Z,41.83
2016-05-07T10:10:45.844Z,41.74
2016-05-07T10:11:45.925Z,41.74
2016-05-07T10:12:46.240Z,41.86
2016-05-07T10:13:45.930Z,41.76
2016-05-07T10:14:45.777Z,41.76
2016-05-07T10:15:45.810Z,41.56
2016-05-07T10:16:45.767Z,41.74
2016-05-07T10:17:45.785Z,41.76
2016-05-07T10:18:45.882Z,41.86
2016-05-07T10:19:45.728Z,41.47
2016-05-07T10:20:45.684Z,41.56
2016-05-07T10:21:45.562Z,41.55
2016-05-07T10:22:45.783Z,41.27
2016-05-07T10:23:45.706Z,40.99
2016-05-07T10:24:45.834Z,40.69
2016-05-07T10:25:46.104Z,41.08
2016-05-07T10:26:46.497Z,41.06
2016-05-07T10:27:45.978Z,41.08
2016-05-07T10:28:45.795Z,40.89
2016-05-07T10:29:53.127Z,40.89
2016-05-07T10:30:47.142Z,40.79
2016-05-07T10:31:46.287Z,40.99
2016-05-07T10:32:45.680Z,40.89
2016-05-07T10:33:45.511Z,40.89
2016-05-07T10:34:45.497Z,40.99
2016-05-07T10:35:45.298Z,41.08
2016-05-07T10:36:45.472Z,41.35
2016-05-07T10:37:46.677Z,40.96
2016-05-07T10:38:45.447Z,40.96
2016-05-07T10:39:45.402Z,40.86
2016-05-07T10:40:45.404Z,40.59
2016-05-07T10:41:45.469Z,40.4
2016-05-07T10:42:45.785Z,40.89
2016-05-07T10:43:45.413Z,40.59
2016-05-07T10:44:45.399Z,40.59
2016-05-07T10:45:45.371Z,40.21
2016-05-07T10:46:45.327Z,40.01
2016-05-07T10:47:46.017Z,39.92
2016-05-07T10:48:45.941Z,40.11
2016-05-07T10:49:45.491Z,40.01
2016-05-07T10:50:45.322Z,39.82
2016-05-07T10:51:48.481Z,40.11
2016-05-07T10:52:45.234Z,39.62
2016-05-07T10:53:45.752Z,39.82
2016-05-07T10:54:45.301Z,39.72
2016-05-07T10:55:45.492Z,39.92
2016-05-07T10:56:45.134Z,39.82
2016-05-07T10:57:45.123Z,39.72
2016-05-07T10:58:45.312Z,39.72
2016-05-07T10:59:45.236Z,39.62
2016-05-07T11:00:45.099Z,39.34
2016-05-07T11:01:45.117Z,39.62
2016-05-07T11:02:45.213Z,39.62
2016-05-07T11:03:45.013Z,39.43
2016-05-07T11:04:45.001Z,39.53
2016-05-07T11:05:45.003Z,39.62
2016-05-07T11:06:46.911Z,39.43
2016-05-07T11:07:44.947Z,39.43
2016-05-07T11:08:44.808Z,39.36
2016-05-07T11:09:45.732Z,39.14
2016-05-07T11:10:45.313Z,39.04
2016-05-07T11:11:44.722Z,38.87
2016-05-07T11:12:44.960Z,38.78
2016-05-07T11:13:44.915Z,38.68
2016-05-07T11:14:44.902Z,38.78
2016-05-07T11:15:44.843Z,38.48
2016-05-07T11:16:44.923Z,38.58
2016-05-07T11:17:44.785Z,38.58
2016-05-07T11:18:44.851Z,38.39
2016-05-07T11:19:45.869Z,38.87
2016-05-07T11:20:45.043Z,38.68
2016-05-07T11:21:44.843Z,38.87
2016-05-07T11:22:44.923Z,38.68
2016-05-07T11:23:45.020Z,38.58
2016-05-07T11:24:45.054Z,38.58
2016-05-07T11:25:45.010Z,38.48
2016-05-07T11:26:45.528Z,38.48
2016-05-07T11:27:44.609Z,38.68
2016-05-07T11:28:44.799Z,38.48
2016-05-07T11:29:44.614Z,38.29
2016-05-07T11:30:44.789Z,38
2016-05-07T11:31:44.964Z,37.9
2016-05-07T11:32:44.575Z,37.9
2016-05-07T11:33:44.532Z,37.71
2016-05-07T11:34:44.440Z,37.81
2016-05-07T11:35:44.537Z,38.12
2016-05-07T11:36:44.758Z,37.71
2016-05-07T11:37:44.447Z,37.81
2016-05-07T11:38:44.514Z,37.81
2016-05-07T11:39:44.469Z,37.92
2016-05-07T11:40:44.285Z,38.19
2016-05-07T11:41:44.427Z,38.12
2016-05-07T11:42:44.431Z,37.82
2016-05-07T11:43:44.433Z,37.92
2016-05-07T11:44:44.404Z,38.02
2016-05-07T11:45:44.330Z,37.73
2016-05-07T11:46:44.676Z,37.43
2016-05-07T11:47:44.335Z,37.24
2016-05-07T11:48:44.321Z,37.43
2016-05-07T11:49:44.293Z,37.73
2016-05-07T11:50:44.312Z,37.73
2016-05-07T11:51:44.252Z,37.24
2016-05-07T11:52:44.223Z,37.05
2016-05-07T11:53:44.273Z,36.95
2016-05-07T11:54:44.213Z,37.07
2016-05-07T11:55:44.200Z,37.16
2016-05-07T11:56:44.171Z,37.16
2016-05-07T11:57:44.220Z,36.97
2016-05-07T11:58:44.162Z,36.77
2016-05-07T11:59:44.148Z,36.58
2016-05-07T12:00:44.104Z,36.21
2016-05-07T12:01:44.122Z,34.48
2016-05-07T12:02:44.078Z,32.37
2016-05-07T12:03:44.034Z,27.58
2016-05-07T12:04:44.239Z,25.9
2016-05-07T12:05:44.383Z,25.55
2016-05-07T12:06:44.026Z,28.36
2016-05-07T12:07:44.108Z,29.88
2016-05-07T12:08:44.000Z,30.81
2016-05-07T12:09:43.988Z,31.1
2016-05-07T12:10:43.991Z,31.19
2016-05-07T12:11:43.946Z,32.26
2016-05-07T12:12:44.183Z,32.32
2016-05-07T12:13:43.889Z,32.13
2016-05-07T12:14:44.063Z,32.32
2016-05-07T12:15:43.925Z,33.78
2016-05-07T12:16:43.866Z,33.48
2016-05-07T12:17:43.899Z,33.58
2016-05-07T12:18:43.855Z,34.43
2016-05-07T12:19:43.843Z,34.72
2016-05-07T12:20:43.846Z,34.92
2016-05-07T12:21:43.816Z,34.72
2016-05-07T12:22:43.819Z,34.64
2016-05-07T12:23:43.760Z,34.16
2016-05-07T12:24:43.746Z,33.59
2016-05-07T12:25:43.593Z,33.51
2016-05-07T12:26:43.767Z,33.8
2016-05-07T12:27:44.130Z,33.8
2016-05-07T12:28:43.695Z,33.23
2016-05-07T12:29:43.682Z,32.28
2016-05-07T12:30:43.684Z,30.86
2016-05-07T12:31:43.703Z,30.19
2016-05-07T12:32:43.690Z,31.18
2016-05-07T12:33:43.458Z,31.65
2016-05-07T12:34:43.618Z,32.52
2016-05-07T12:35:43.619Z,32.31
2016-05-07T12:36:43.576Z,32.4
2016-05-07T12:37:43.438Z,32.89
2016-05-07T12:38:43.456Z,33.46
2016-05-07T12:39:43.536Z,33.07
2016-05-07T12:40:43.587Z,32.76
2016-05-07T12:41:43.527Z,32.58
2016-05-07T12:42:43.530Z,33.44
2016-05-07T12:43:43.563Z,33.72
2016-05-07T12:44:43.769Z,33.33
2016-05-07T12:45:43.475Z,33.72
2016-05-07T12:46:43.322Z,33.51
2016-05-07T12:47:43.449Z,34.09
2016-05-07T12:48:43.389Z,33.61
2016-05-07T12:49:43.361Z,33.61
2016-05-07T12:50:43.379Z,33.41
2016-05-07T12:51:43.210Z,33.31
2016-05-07T12:52:43.431Z,33.12
2016-05-07T12:53:43.309Z,32.34
2016-05-07T12:54:43.326Z,32.86
2016-05-07T12:55:43.362Z,32.26
2016-05-07T12:56:43.301Z,32.34
2016-05-07T12:57:43.195Z,32.24
2016-05-07T12:58:43.588Z,32.53
2016-05-07T12:59:43.310Z,33.39
2016-05-07T13:00:43.218Z,33.29
2016-05-07T13:01:43.456Z,33.39
2016-05-07T13:02:43.256Z,33.78
2016-05-07T13:03:43.242Z,33.38
2016-05-07T13:04:43.182Z,33.38
2016-05-07T13:05:43.184Z,33.39
2016-05-07T13:06:43.828Z,33.77
2016-05-07T13:07:43.159Z,33.67
2016-05-07T13:08:43.146Z,33.67
2016-05-07T13:09:43.195Z,33.96
2016-05-07T13:10:43.105Z,33.67
2016-05-07T13:11:43.092Z,33.58
2016-05-07T13:12:43.047Z,33.56
2016-05-07T13:13:43.097Z,31.53
2016-05-07T13:14:43.099Z,29.93
2016-05-07T13:15:43.056Z,26.17
2016-05-07T13:16:43.089Z,24.19
2016-05-07T13:17:42.982Z,23.54
2016-05-07T13:18:42.985Z,18.19
2016-05-07T13:19:42.988Z,17.77
2016-05-07T13:20:42.960Z,18.27
2016-05-07T13:21:42.962Z,20.73
2016-05-07T13:22:42.918Z,23.15
2016-05-07T13:23:42.718Z,25.26
2016-05-07T13:24:42.907Z,26.67
2016-05-07T13:25:42.910Z,26.44
2016-05-07T13:26:42.851Z,26.35
2016-05-07T13:27:42.698Z,26.67
2016-05-07T13:28:42.934Z,27.12
2016-05-07T13:29:42.828Z,20.31
2016-05-07T13:30:42.830Z,17.18
2016-05-07T13:31:42.817Z,15.36
2016-05-07T13:32:42.929Z,14.71
2016-05-07T13:33:42.776Z,14.14
2016-05-07T13:34:42.794Z,12.16
2016-05-07T13:35:42.765Z,11.11
2016-05-07T13:36:42.597Z,9.64
2016-05-07T13:37:42.584Z,7.86
2016-05-07T13:38:42.711Z,6.88
2016-05-07T13:39:42.761Z,7.51
2016-05-07T13:40:42.733Z,11.55
2016-05-07T13:41:42.703Z,14.79
2016-05-07T13:42:42.675Z,17
2016-05-07T13:43:42.569Z,18.84
2016-05-07T13:44:42.665Z,21.16
2016-05-07T13:45:42.777Z,21.91
2016-05-07T13:46:42.639Z,18.12
2016-05-07T13:47:42.641Z,17
2016-05-07T13:48:42.582Z,14.14
2016-05-07T13:49:42.413Z,17.41
2016-05-07T13:50:42.619Z,18.6
2016-05-07T13:51:42.605Z,19.07
2016-05-07T13:52:42.546Z,20.36
2016-05-07T13:53:42.393Z,21.61
2016-05-07T13:54:42.567Z,22.07
2016-05-07T13:55:42.585Z,22.16
2016-05-07T13:56:42.525Z,23.04
2016-05-07T13:57:42.528Z,22.33
2016-05-07T13:58:42.656Z,22.83
2016-05-07T13:59:42.486Z,21.64
2016-05-07T14:00:42.489Z,19.87
2016-05-07T14:01:42.492Z,18.73
2016-05-07T14:02:42.495Z,17.18
2016-05-07T14:03:42.497Z,17.8
2016-05-07T14:04:42.468Z,17.58
2016-05-07T14:05:42.346Z,16.91
2016-05-07T14:06:42.473Z,16.53
2016-05-07T14:07:42.415Z,17.83
2016-05-07T14:08:42.448Z,19.97
2016-05-07T14:09:42.389Z,21.12
2016-05-07T14:10:42.391Z,21.78
2016-05-07T14:11:42.394Z,22.07
2016-05-07T14:12:42.897Z,22.07
2016-05-07T14:13:42.493Z,23.04
2016-05-07T14:14:42.355Z,22.42
2016-05-07T14:15:42.358Z,22.16
2016-05-07T14:16:42.376Z,20.08
2016-05-07T14:17:42.379Z,19.74
2016-05-07T14:18:42.335Z,22.67
2016-05-07T14:19:42.368Z,24.09
2016-05-07T14:20:42.324Z,25.13
2016-05-07T14:21:42.327Z,26.47
2016-05-07T14:22:42.126Z,25.66
2016-05-07T14:23:42.285Z,27.05
2016-05-07T14:24:42.272Z,26.72
2016-05-07T14:25:42.260Z,27.87
2016-05-07T14:26:42.309Z,28.44
2016-05-07T14:27:43.046Z,28.41
2016-05-07T14:28:42.237Z,29.18
2016-05-07T14:29:42.255Z,29.07
2016-05-07T14:30:42.351Z,29.35
2016-05-07T14:31:42.213Z,29.44
2016-05-07T14:32:42.216Z,30.1
2016-05-07T14:33:42.047Z,30.1
2016-05-07T14:34:42.268Z,29.21
2016-05-07T14:35:42.161Z,28.93
2016-05-07T14:36:42.008Z,23.94
2016-05-07T14:37:42.167Z,18.77
2016-05-07T14:38:42.184Z,16.02
2016-05-07T14:39:42.094Z,15.56
2016-05-07T14:40:42.159Z,14.9
2016-05-07T14:41:42.209Z,15.52
2016-05-07T14:42:42.164Z,15.81
2016-05-07T14:43:42.073Z,13.82
2016-05-07T14:44:41.920Z,12.18
2016-05-07T14:45:41.939Z,12.11
2016-05-07T14:46:42.035Z,11.92
2016-05-07T14:47:42.116Z,11.03
2016-05-07T14:48:42.119Z,10.56
2016-05-07T14:49:41.997Z,9.47
2016-05-07T14:50:42.405Z,9.78
2016-05-07T14:51:42.126Z,9.59
2016-05-07T14:52:41.988Z,9.6
2016-05-07T14:53:42.147Z,10.3
2016-05-07T14:54:41.962Z,10.7
2016-05-07T14:55:41.966Z,10.91
2016-05-07T14:56:42.140Z,11.21
2016-05-07T14:57:46.596Z,11.61
2016-05-07T14:58:41.942Z,11.51
2016-05-07T14:59:41.929Z,11.31
2016-05-07T15:00:41.963Z,11.21
2016-05-07T15:01:41.918Z,11.93
2016-05-07T15:02:41.921Z,11.93
2016-05-07T15:03:42.034Z,11.52
2016-05-07T15:04:42.084Z,11.63
2016-05-07T15:05:41.945Z,12.24
2016-05-07T15:06:41.901Z,11.74
2016-05-07T15:07:41.904Z,12.63
2016-05-07T15:08:41.750Z,13.23
2016-05-07T15:09:42.284Z,13.92
2016-05-07T15:10:41.927Z,15.09
2016-05-07T15:11:41.930Z,16.67
2016-05-07T15:12:41.886Z,17.84
2016-05-07T15:13:41.842Z,18.49
2016-05-07T15:14:41.844Z,18.57
2016-05-07T15:15:41.831Z,18.75
2016-05-07T15:16:41.834Z,18.54
2016-05-07T15:17:41.852Z,20.13
2016-05-07T15:18:41.839Z,21.19
2016-05-07T15:19:41.858Z,22.44
2016-05-07T15:20:41.908Z,23.08
2016-05-07T15:21:41.800Z,23.55
2016-05-07T15:22:41.788Z,24.11
2016-05-07T15:23:41.603Z,24.19
2016-05-07T15:24:41.762Z,24.16
2016-05-07T15:25:41.858Z,22.89
2016-05-07T15:26:41.955Z,21.92
2016-05-07T15:27:41.786Z,20.76
2016-05-07T15:28:41.726Z,20.18
2016-05-07T15:29:41.791Z,20.5
2016-05-07T15:30:41.732Z,21.78
2016-05-07T15:31:41.640Z,22.44
2016-05-07T15:32:41.548Z,22.61
2016-05-07T15:33:41.832Z,23.1
2016-05-07T15:34:41.539Z,23.76
2016-05-07T15:35:41.698Z,24.23
2016-05-07T15:36:41.700Z,24.3
2016-05-07T15:37:41.687Z,24.79
2016-05-07T15:38:41.706Z,24.96
2016-05-07T15:39:41.661Z,23.78
2016-05-07T15:40:41.664Z,24.29
2016-05-07T15:41:41.714Z,24.37
2016-05-07T15:42:41.779Z,24.55
2016-05-07T15:43:41.625Z,24.36
2016-05-07T15:44:41.628Z,25.02
2016-05-07T15:45:41.615Z,25.12
2016-05-07T15:46:41.603Z,25.89
2016-05-07T15:47:41.589Z,25.68
2016-05-07T15:48:41.603Z,26.26
2016-05-07T15:49:41.575Z,26.15
2016-05-07T15:50:41.655Z,26.43
2016-05-07T15:51:41.548Z,25.83
2016-05-07T15:52:41.551Z,25.56
2016-05-07T15:53:41.554Z,25.66
2016-05-07T15:54:41.588Z,26.43
2016-05-07T15:55:41.652Z,26.03
2016-05-07T15:56:41.484Z,25.54
2016-05-07T15:57:41.799Z,24.77
2016-05-07T15:58:41.457Z,24.69
2016-05-07T15:59:41.492Z,24.98
2016-05-07T16:00:41.369Z,25.85
2016-05-07T16:01:41.418Z,25.74
2016-05-07T16:02:41.452Z,26.12
2016-05-07T16:03:41.487Z,26.32
2016-05-07T16:04:41.396Z,26.5
2016-05-07T16:05:41.570Z,26.78
2016-05-07T16:06:41.385Z,26.57
2016-05-07T16:07:41.373Z,27.16
2016-05-07T16:08:41.329Z,27.05
2016-05-07T16:09:41.346Z,26.95
2016-05-07T16:10:41.349Z,27.34
2016-05-07T16:11:41.336Z,26.84
2016-05-07T16:12:41.526Z,26.54
2016-05-07T16:13:41.437Z,26.66
2016-05-07T16:14:41.376Z,26.38
2016-05-07T16:15:41.378Z,26.48
2016-05-07T16:16:41.147Z,26.67
2016-05-07T16:17:41.165Z,26.77
2016-05-07T16:18:41.543Z,26.28
2016-05-07T16:19:41.265Z,26.21
2016-05-07T16:20:41.250Z,26.32
2016-05-07T16:21:41.269Z,26.42
2016-05-07T16:22:41.225Z,26.53
2016-05-07T16:23:41.228Z,26.23
2016-05-07T16:24:41.465Z,26.32
2016-05-07T16:25:41.312Z,26.34
2016-05-07T16:26:41.205Z,26.05
2016-05-07T16:27:41.301Z,25.85
2016-05-07T16:28:41.194Z,26.05
2016-05-07T16:29:41.150Z,25.85
2016-05-07T16:30:41.013Z,25.66
2016-05-07T16:31:41.125Z,25.85
2016-05-07T16:32:41.143Z,26.54
2016-05-07T16:33:41.082Z,26.43
2016-05-07T16:34:41.164Z,26.43
2016-05-07T16:35:41.136Z,26.51
2016-05-07T16:36:41.138Z,26.71
2016-05-07T16:37:41.047Z,26.61
2016-05-07T16:38:40.846Z,26.71
2016-05-07T16:39:40.834Z,26.79
2016-05-07T16:40:40.993Z,26.78
2016-05-07T16:41:41.011Z,27.08
2016-05-07T16:42:42.310Z,27.06
2016-05-07T16:43:40.969Z,27.06
2016-05-07T16:44:40.972Z,27.06
2016-05-07T16:45:40.929Z,27.26
2016-05-07T16:46:40.931Z,26.87
2016-05-07T16:47:40.902Z,27.34
2016-05-07T16:48:40.905Z,27.34
2016-05-07T16:49:40.928Z,27.42
2016-05-07T16:50:40.931Z,27.72
2016-05-07T16:51:40.949Z,27.8
2016-05-07T16:52:40.874Z,27.7
2016-05-07T16:53:40.891Z,28.09
2016-05-07T16:54:40.675Z,27.89
2016-05-07T16:55:40.866Z,28.18
2016-05-07T16:56:40.666Z,28.38
2016-05-07T16:57:40.997Z,28.07
2016-05-07T16:58:40.047Z,27.87
2016-05-07T16:59:41.127Z,28.08
2016-05-07T17:00:40.786Z,27.79
2016-05-07T17:01:40.835Z,27.79
2016-05-07T17:02:40.775Z,27.8
2016-05-07T17:03:40.779Z,27.69
2016-05-07T17:04:40.735Z,27.89
2016-05-07T17:05:40.721Z,27.89
2016-05-07T17:06:40.662Z,28.07
2016-05-07T17:07:40.695Z,28.07
2016-05-07T17:08:40.682Z,27.4
2016-05-07T17:09:40.654Z,27.22
2016-05-07T17:10:40.703Z,27.31
2016-05-07T17:11:40.628Z,26.93
2016-05-07T17:12:43.381Z,26.46
2016-05-07T17:13:40.601Z,26.97
2016-05-07T17:14:40.604Z,26.68
2016-05-07T17:15:40.607Z,26.6
2016-05-07T17:16:40.578Z,26.51
2016-05-07T17:17:40.550Z,26.81
2016-05-07T17:18:40.552Z,26.32
2016-05-07T17:19:40.649Z,26.23
2016-05-07T17:20:40.543Z,26.23
2016-05-07T17:21:40.623Z,26.23
2016-05-07T17:22:40.501Z,26.53
2016-05-07T17:23:40.316Z,26.9
2016-05-07T17:24:40.475Z,26.81
2016-05-07T17:25:40.463Z,26.79
2016-05-07T17:26:40.496Z,27.37
2016-05-07T17:27:40.530Z,27.47
2016-05-07T17:28:40.455Z,27.06
2016-05-07T17:29:40.426Z,28.03
2016-05-07T17:30:40.444Z,27.73
2016-05-07T17:31:40.416Z,27.91
2016-05-07T17:32:40.434Z,28.01
2016-05-07T17:33:40.313Z,28.09
2016-05-07T17:34:40.440Z,28.09
2016-05-07T17:35:40.719Z,28.28
2016-05-07T17:36:40.405Z,28.18
2016-05-07T17:37:40.466Z,27.97
2016-05-07T17:38:40.495Z,28.54
2016-05-07T17:39:40.493Z,28.44
2016-05-07T17:40:40.577Z,28.83
2016-05-07T17:41:40.517Z,28.74
2016-05-07T17:42:40.879Z,28.63
2016-05-07T17:43:40.489Z,28.92
2016-05-07T17:44:40.507Z,28.82
2016-05-07T17:45:40.616Z,28.9
2016-05-07T17:46:40.328Z,28.61
2016-05-07T17:47:40.492Z,28.8
2016-05-07T17:48:40.408Z,29
2016-05-07T17:49:40.494Z,28.89
2016-05-07T17:50:40.580Z,28.79
2016-05-07T17:52:40.511Z,28.79
2016-05-07T17:53:40.484Z,28.89
2016-05-07T17:54:40.426Z,28.59
2016-05-07T17:55:40.633Z,28.58
2016-05-07T17:56:40.434Z,28.88
2016-05-07T17:57:40.375Z,29.06
2016-05-07T17:58:40.379Z,29.36
2016-05-07T17:59:40.366Z,29.15
2016-05-07T18:00:40.385Z,29.15
2016-05-07T18:01:40.388Z,29.05
2016-05-07T18:02:40.483Z,29.05
2016-05-07T18:03:40.439Z,29.25
2016-05-07T18:04:40.364Z,29.62
2016-05-07T18:05:40.288Z,29.52
2016-05-07T18:06:40.338Z,30.11
2016-05-07T18:07:40.325Z,30.01
2016-05-07T18:08:40.344Z,29.52
2016-05-07T18:09:40.315Z,29.52
2016-05-07T18:10:40.208Z,29.62
2016-05-07T18:11:40.321Z,29.91
2016-05-07T18:12:40.229Z,29.72
2016-05-07T18:13:40.216Z,29.8
2016-05-07T18:14:40.188Z,30.09
2016-05-07T18:15:40.175Z,30.29
2016-05-07T18:16:40.178Z,29.9
2016-05-07T18:17:40.243Z,29.9
2016-05-07T18:18:40.090Z,30
2016-05-07T18:19:40.029Z,30
2016-05-07T18:20:40.204Z,29.9
2016-05-07T18:21:40.159Z,29.88
2016-05-07T18:22:40.069Z,30.08
2016-05-07T18:23:40.103Z,30.27
2016-05-07T18:24:40.058Z,30.47
2016-05-07T18:25:40.045Z,30.47
2016-05-07T18:26:40.048Z,30.27
2016-05-07T18:27:40.192Z,30.47
2016-05-07T18:28:39.961Z,30.84
2016-05-07T18:29:39.791Z,30.47
2016-05-07T18:30:39.950Z,30.84
2016-05-07T18:31:39.983Z,30.84
2016-05-07T18:32:39.893Z,31.13
2016-05-07T18:33:39.989Z,30.84
2016-05-07T18:34:39.866Z,31.13
2016-05-07T18:35:39.839Z,30.54
2016-05-07T18:36:40.091Z,31.02
2016-05-07T18:37:39.906Z,31.02
2016-05-07T18:38:39.737Z,30.82
2016-05-07T18:39:39.802Z,30.92
2016-05-07T18:40:39.852Z,31.12
2016-05-07T18:41:39.636Z,31.12
2016-05-07T18:42:39.935Z,31.31
2016-05-07T18:43:39.719Z,31.7
2016-05-07T18:44:39.581Z,31.41
2016-05-07T18:45:39.537Z,31.39
2016-05-07T18:46:39.696Z,31.49
2016-05-07T18:47:39.840Z,32.17
2016-05-07T18:48:39.779Z,31.59
2016-05-07T18:49:39.829Z,31.78
2016-05-07T18:50:39.645Z,31.87
2016-05-07T18:51:39.632Z,32.07
2016-05-07T18:52:39.603Z,32.07
2016-05-07T18:53:39.620Z,32.07
2016-05-07T18:54:39.577Z,32.06
2016-05-07T18:55:39.611Z,32.15
2016-05-07T18:56:39.629Z,32.24
2016-05-07T18:57:39.772Z,32.24
2016-05-07T18:58:39.526Z,32.24
2016-05-07T18:59:39.512Z,32.34
2016-05-07T19:00:39.514Z,32.06
2016-05-07T19:01:39.534Z,32.15
2016-05-07T19:02:39.536Z,32.24
2016-05-07T19:03:39.413Z,31.96
2016-05-07T19:04:39.417Z,32.34
2016-05-07T19:05:39.638Z,32.54
2016-05-07T19:06:39.234Z,32.44
2016-05-07T19:07:39.409Z,32.44
2016-05-07T19:08:39.474Z,32.14
2016-05-07T19:09:39.335Z,33.29
2016-05-07T19:10:39.339Z,32.73
2016-05-07T19:11:39.372Z,33.01
2016-05-07T19:12:41.360Z,33.1
2016-05-07T19:13:39.299Z,33.59
2016-05-07T19:14:56.662Z,33.2
2016-05-07T19:15:39.337Z,32.99
2016-05-07T19:16:39.260Z,33.29
2016-05-07T19:17:39.218Z,33.2
2016-05-07T19:18:39.204Z,33.59
2016-05-07T19:19:39.254Z,33.47
2016-05-07T19:20:39.178Z,33.57
2016-05-07T19:21:39.415Z,33.09
2016-05-07T19:22:39.418Z,33.37
2016-05-07T19:23:39.260Z,33.57
2016-05-07T19:24:39.059Z,33.37
2016-05-07T19:25:39.109Z,33.18
2016-05-07T19:26:39.862Z,33.28
2016-05-07T19:27:39.161Z,33.18
2016-05-07T19:28:39.210Z,33.95
2016-05-07T19:29:39.026Z,33.95
2016-05-07T19:30:39.325Z,33.36
2016-05-07T19:31:38.968Z,33.67
2016-05-07T19:32:39.050Z,33.75
2016-05-07T19:33:39.178Z,33.94
2016-05-07T19:34:38.961Z,33.75
2016-05-07T19:35:38.979Z,33.94
2016-05-07T19:36:38.904Z,34.42
2016-05-07T19:37:38.922Z,34.23
2016-05-07T19:38:39.003Z,34.13
2016-05-07T19:39:38.739Z,34.52
2016-05-07T19:40:38.867Z,34.33
2016-05-07T19:41:38.901Z,34.23
2016-05-07T19:42:38.888Z,34.13
2016-05-07T19:43:38.830Z,34.42
2016-05-07T19:44:38.769Z,34.42
2016-05-07T19:45:38.975Z,34.62
2016-05-07T19:46:38.868Z,34.62
2016-05-07T19:47:38.730Z,34.41
2016-05-07T19:48:38.749Z,34.7
2016-05-07T19:49:38.829Z,34.71
2016-05-07T19:50:38.692Z,34.6
2016-05-07T19:51:38.710Z,34.21
2016-05-07T19:52:38.650Z,34.5
2016-05-07T19:53:38.637Z,34.6
2016-05-07T19:54:38.640Z,34.79
2016-05-07T19:55:38.643Z,34.89
2016-05-07T19:56:38.629Z,34.89
2016-05-07T19:57:38.585Z,34.99
2016-05-07T19:58:38.604Z,35.18
2016-05-07T19:59:38.513Z,35.18
2016-05-07T20:00:38.640Z,35.18
2016-05-07T20:01:38.518Z,35.16
2016-05-07T20:02:38.676Z,35.26
2016-05-07T20:03:38.617Z,35.55
2016-05-07T20:04:38.557Z,35.55
2016-05-07T20:05:38.435Z,35.45
2016-05-07T20:06:38.406Z,35.45
2016-05-07T20:07:38.300Z,35.26
2016-05-07T20:08:39.334Z,35.74
2016-05-07T20:09:38.242Z,35.74
2016-05-07T20:10:38.198Z,35.55
2016-05-07T20:11:38.373Z,35.64
2016-05-07T20:12:38.360Z,35.36
2016-05-07T20:13:38.191Z,35.45
2016-05-07T20:14:38.521Z,35.55
2016-05-07T20:15:38.305Z,35.72
2016-05-07T20:16:38.355Z,35.84
2016-05-07T20:17:38.264Z,35.92
2016-05-07T20:18:38.235Z,35.92
2016-05-07T20:19:38.254Z,35.82
2016-05-07T20:20:38.209Z,36.11
2016-05-07T20:21:38.025Z,36.01
2016-05-07T20:22:38.153Z,36.21
2016-05-07T20:23:37.999Z,35.92
2016-05-07T20:24:38.205Z,36.01
2016-05-07T20:25:38.801Z,36.11
2016-05-07T20:26:38.132Z,36.21
2016-05-07T20:27:38.135Z,36.4
2016-05-07T20:28:38.216Z,36.5
2016-05-07T20:29:38.187Z,36.59
2016-05-07T20:30:38.206Z,36.21
2016-05-07T20:31:38.004Z,36.21
2016-05-07T20:32:37.914Z,36.19
2016-05-07T20:33:37.995Z,36.38
2016-05-07T20:34:37.934Z,36.19
2016-05-07T20:35:37.970Z,36.48
2016-05-07T20:36:37.925Z,36.48
2016-05-07T20:37:37.895Z,36.48
2016-05-07T20:38:37.914Z,36.48
2016-05-07T20:39:37.964Z,36.57
2016-05-07T20:40:37.700Z,36.67
2016-05-07T20:41:37.906Z,37.06
2016-05-07T20:42:38.363Z,36.67
2016-05-07T20:43:37.959Z,36.57
2016-05-07T20:44:38.681Z,36.87
2016-05-07T20:45:37.839Z,36.77
2016-05-07T20:46:38.076Z,36.77
2016-05-07T20:47:37.923Z,36.96
2016-05-07T20:48:37.738Z,36.87
2016-05-07T20:49:37.912Z,36.85
2016-05-07T20:50:38.259Z,36.96
2016-05-07T20:51:37.840Z,37.23
2016-05-07T20:52:37.671Z,37.04
2016-05-07T20:53:37.689Z,37.63
2016-05-07T20:54:37.848Z,37.04
2016-05-07T20:55:37.788Z,37.04
2016-05-07T20:56:37.572Z,37.33
2016-05-07T20:57:37.731Z,37.23
2016-05-07T20:58:37.531Z,37.33
2016-05-07T20:59:37.659Z,37.43
2016-05-07T21:00:37.521Z,38.01
2016-05-07T21:01:37.727Z,37.71
2016-05-07T21:02:37.479Z,37.71